Flight Track Log - Related Links

Times and Time Zones

All times are in EDT time to prevent confusion due to time zone crossing. See the EJA233 flight status page for this flight to view local times or setup timezone preferences in your user account.

Time Position Orientation Groundspeed Altitude Reporting Facility
EDT Latitude Longitude Course Direction KTS MPH feet Rate Location/Type
Thu 03:30:15 PM 33.6305 -116.1810 341° North  Level FlightAware Approximate
Thu 03:31:21 PM 33.8000 -116.2500 320° Northwest 230 265 8,500  Level Southern California TRACON
Thu 03:32:21 PM 33.8500 -116.3000 281° West 245 282 8,500 1,050 Level Southern California TRACON
Thu 03:33:21 PM 33.8667 -116.4000 280° West 273 314 10,600 1,750 Climbing Southern California TRACON
Thu 03:34:21 PM 33.8833 -116.5167 292° West 399 459 12,000 700 Climbing Southern California TRACON
Thu 03:35:21 PM 33.9167 -116.6167 287° West 342 394 12,000 -48 Level Southern California TRACON
Thu 03:36:27 PM 33.9500 -116.7500 270° West 406 467 11,900  Descending Southern California TRACON
Thu 03:37:27 PM 33.9500 -116.9000 261° West 412 474 12,000 -200 Climbing Southern California TRACON
Thu 03:38:27 PM 33.9333 -117.0333 285° West 419 482 11,500 -843 Descending Southern California TRACON
Thu 03:39:28 PM 33.9667 -117.1833 280° West 408 470 10,300 -744 Descending Southern California TRACON
Thu 03:40:28 PM 33.9833 -117.3000 306° West 382 440 10,000 -550 Descending Southern California TRACON
Thu 03:41:28 PM 34.0333 -117.3833 296° West 301 346 9,200 -952 Descending Southern California TRACON
Thu 03:42:34 PM 34.0667 -117.4667 270° West 269 310 8,000 -567 Descending Southern California TRACON
Thu 03:43:35 PM 34.0667 -117.5667 270° West 251 289 8,000 -99 Level Southern California TRACON
Thu 03:44:35 PM 34.0667 -117.6500 284° West 270 311 7,800 -950 Descending Southern California TRACON
Thu 03:45:35 PM 34.0833 -117.7333 259° West 257 296 6,100 -992 Descending Southern California TRACON
Thu 03:46:36 PM 34.0667 -117.8333 256° West 269 310 5,800 -744 Descending Southern California TRACON
Thu 03:47:36 PM 34.0500 -117.9167 296° West 267 307 4,600 -900 Descending Southern California TRACON
Thu 03:48:36 PM 34.0833 -118.0000 284° West 264 304 4,000 -300 Descending Southern California TRACON
Thu 03:49:36 PM 34.1000 -118.0833 284° West 264 304 4,000  Level Southern California TRACON
Thu 03:50:36 PM 34.1167 -118.1667 270° West 229 264 4,000  Level Southern California TRACON
Thu 03:51:43 PM 34.1167 -118.2500 270° West 205 236 4,000 -425 Level Southern California TRACON
Thu 03:52:43 PM 34.1167 -118.3167 231° Southwest 201 231 3,100 -700 Descending Southern California TRACON
Thu 03:53:43 PM 34.0833 -118.3667 220° Southwest 184 212 2,600 -694 Descending Southern California TRACON
Thu 03:54:44 PM 34.0500 -118.4000 239° Southwest 127 146 1,700 -942 Descending Southern California TRACON
Thu 03:55:44 PM 34.0333 -118.4333 239° Southwest 120 138 700 -1,000 Descending Southern California TRACON

Login

Don't have an account? Register now (free) for customized features, flight alerts, and more!